Lady's Island, South Carolina
Current Conditions -  °F | °C
As of 9:15 AM on Thursday 30 Oct 2014 (Local Time) from KARW Reporting Station
Overcast Overcast  
Wind Chill: 63°   Ceiling: 500
Heat Index: 63°   Visibility: 10mi
Dew Point: 61°   Wind: 13mph
Humidity: 94%   Direction: 360°N
Pressure: 29.99"   Gusts: NA
Location:  32.43°N, 80.62°W
Report Text: KARW 301315Z AUTO 36011KT 10SM BKN005 OVC010 17/16 A2999 RMK AO2
Loading
Personal Weather Stations






























Interactive Weather Map
Tropical Storm Tracking
New forecast layout! Learn more

10-Day Weather Forecast

Advertisements
Track Severe Weather on mobile